Urb Monte Sol, Puerto Rico
Current Conditions -  °F | °C
As of 8:45 AM on Sunday 23 Nov 2014 (Local Time) from TJIG Reporting Station
Scattered Clouds Scattered Clouds  
Wind Chill: 81°   Ceiling: Unl
Heat Index: 85°   Visibility: 10mi
Dew Point: 73°   Wind: 12mph
Humidity: 79%   Direction: 140°SE
Pressure: 30.07"   Gusts: NA
Location:  18.3893°N, 66.2481°W
Report Text: TJIG 231245Z 14010KT 10SM SCT030 27/23 A3007 RMK RY09 IN USE ATIS C
Loading
Personal Weather Stations






























Interactive Weather Map New forecast layout! Learn more

10-Day Weather Forecast

Advertisements
Track Severe Weather on mobile